sensor_id;sensor_type;location;lat;lon;timestamp;P1;durP1;ratioP1;P2;durP2;ratioP2
59434;SDS011;45241;49.768;8.636;2023-04-24T00:00:18;3.70;;;0.95;;
59434;SDS011;45241;49.768;8.636;2023-04-24T00:02:43;1.33;;;0.65;;
59434;SDS011;45241;49.768;8.636;2023-04-24T00:05:16;1.05;;;0.60;;
59434;SDS011;45241;49.768;8.636;2023-04-24T00:07:42;2.15;;;0.77;;
59434;SDS011;45241;49.768;8.636;2023-04-24T00:10:08;3.63;;;0.68;;
59434;SDS011;45241;49.768;8.636;2023-04-24T00:12:34;1.02;;;0.73;;
59434;SDS011;45241;49.768;8.636;2023-04-24T00:15:00;1.15;;;0.73;;
59434;SDS011;45241;49.768;8.636;2023-04-24T00:17:25;2.72;;;0.80;;
59434;SDS011;45241;49.768;8.636;2023-04-24T00:19:51;2.35;;;0.60;;
59434;SDS011;45241;49.768;8.636;2023-04-24T00:22:16;1.50;;;0.73;;
59434;SDS011;45241;49.768;8.636;2023-04-24T00:24:42;1.55;;;0.70;;
59434;SDS011;45241;49.768;8.636;2023-04-24T00:27:08;2.13;;;0.70;;
59434;SDS011;45241;49.768;8.636;2023-04-24T00:29:33;1.45;;;0.70;;
59434;SDS011;45241;49.768;8.636;2023-04-24T00:31:59;2.25;;;0.77;;
59434;SDS011;45241;49.768;8.636;2023-04-24T00:34:24;3.03;;;0.82;;
59434;SDS011;45241;49.768;8.636;2023-04-24T00:36:50;2.33;;;0.93;;
59434;SDS011;45241;49.768;8.636;2023-04-24T00:39:17;2.33;;;0.77;;
59434;SDS011;45241;49.768;8.636;2023-04-24T00:41:46;2.60;;;0.90;;
59434;SDS011;45241;49.768;8.636;2023-04-24T00:44:13;1.95;;;0.70;;
59434;SDS011;45241;49.768;8.636;2023-04-24T00:46:38;1.63;;;0.70;;
59434;SDS011;45241;49.768;8.636;2023-04-24T00:49:04;2.10;;;0.80;;
59434;SDS011;45241;49.768;8.636;2023-04-24T00:51:31;2.58;;;0.90;;
59434;SDS011;45241;49.768;8.636;2023-04-24T00:53:57;2.03;;;0.88;;
59434;SDS011;45241;49.768;8.636;2023-04-24T00:56:23;2.28;;;0.80;;
59434;SDS011;45241;49.768;8.636;2023-04-24T00:58:49;2.67;;;0.90;;
59434;SDS011;45241;49.768;8.636;2023-04-24T01:01:14;4.63;;;1.60;;
59434;SDS011;45241;49.768;8.636;2023-04-24T01:03:40;2.65;;;0.90;;
59434;SDS011;45241;49.768;8.636;2023-04-24T01:06:06;5.10;;;0.80;;
59434;SDS011;45241;49.768;8.636;2023-04-24T01:08:31;2.38;;;0.70;;
59434;SDS011;45241;49.768;8.636;2023-04-24T01:10:59;3.33;;;1.08;;
59434;SDS011;45241;49.768;8.636;2023-04-24T01:13:27;2.17;;;0.90;;
59434;SDS011;45241;49.768;8.636;2023-04-24T01:15:52;3.35;;;1.25;;
59434;SDS011;45241;49.768;8.636;2023-04-24T01:18:18;2.60;;;0.88;;
59434;SDS011;45241;49.768;8.636;2023-04-24T01:20:43;2.25;;;0.80;;
59434;SDS011;45241;49.768;8.636;2023-04-24T01:23:10;3.30;;;0.82;;
59434;SDS011;45241;49.768;8.636;2023-04-24T01:25:36;1.60;;;0.70;;
59434;SDS011;45241;49.768;8.636;2023-04-24T01:28:02;2.72;;;0.68;;
59434;SDS011;45241;49.768;8.636;2023-04-24T01:30:28;2.58;;;0.80;;
59434;SDS011;45241;49.768;8.636;2023-04-24T01:32:56;3.47;;;0.75;;
59434;SDS011;45241;49.768;8.636;2023-04-24T01:35:21;1.77;;;0.63;;
59434;SDS011;45241;49.768;8.636;2023-04-24T01:37:47;1.00;;;0.60;;
59434;SDS011;45241;49.768;8.636;2023-04-24T01:40:12;3.03;;;0.80;;
59434;SDS011;45241;49.768;8.636;2023-04-24T01:42:37;3.25;;;0.88;;
59434;SDS011;45241;49.768;8.636;2023-04-24T01:45:03;1.88;;;0.80;;
59434;SDS011;45241;49.768;8.636;2023-04-24T01:47:30;1.13;;;0.60;;
59434;SDS011;45241;49.768;8.636;2023-04-24T01:49:56;2.90;;;0.90;;
59434;SDS011;45241;49.768;8.636;2023-04-24T01:52:22;3.20;;;0.70;;
59434;SDS011;45241;49.768;8.636;2023-04-24T01:54:47;2.67;;;0.90;;
59434;SDS011;45241;49.768;8.636;2023-04-24T01:57:13;2.17;;;0.70;;
59434;SDS011;45241;49.768;8.636;2023-04-24T01:59:39;2.38;;;0.63;;
59434;SDS011;45241;49.768;8.636;2023-04-24T02:02:05;2.88;;;0.75;;
59434;SDS011;45241;49.768;8.636;2023-04-24T02:04:30;3.85;;;0.70;;
59434;SDS011;45241;49.768;8.636;2023-04-24T02:06:56;1.73;;;0.60;;
59434;SDS011;45241;49.768;8.636;2023-04-24T02:09:21;1.65;;;0.77;;
59434;SDS011;45241;49.768;8.636;2023-04-24T02:11:47;1.88;;;0.80;;
59434;SDS011;45241;49.768;8.636;2023-04-24T02:14:12;2.35;;;0.70;;
59434;SDS011;45241;49.768;8.636;2023-04-24T02:16:37;2.47;;;0.80;;
59434;SDS011;45241;49.768;8.636;2023-04-24T02:19:03;1.70;;;0.80;;
59434;SDS011;45241;49.768;8.636;2023-04-24T02:21:28;3.45;;;0.73;;
59434;SDS011;45241;49.768;8.636;2023-04-24T02:23:55;3.05;;;1.00;;
59434;SDS011;45241;49.768;8.636;2023-04-24T02:26:21;1.55;;;0.95;;
59434;SDS011;45241;49.768;8.636;2023-04-24T02:28:46;2.45;;;1.00;;
59434;SDS011;45241;49.768;8.636;2023-04-24T02:31:11;3.83;;;1.00;;
59434;SDS011;45241;49.768;8.636;2023-04-24T02:33:36;2.20;;;1.20;;
59434;SDS011;45241;49.768;8.636;2023-04-24T02:36:02;2.50;;;1.10;;
59434;SDS011;45241;49.768;8.636;2023-04-24T02:38:28;2.83;;;1.30;;
59434;SDS011;45241;49.768;8.636;2023-04-24T02:40:53;4.53;;;1.25;;
59434;SDS011;45241;49.768;8.636;2023-04-24T02:43:19;2.67;;;1.00;;
59434;SDS011;45241;49.768;8.636;2023-04-24T02:45:45;2.40;;;0.98;;
59434;SDS011;45241;49.768;8.636;2023-04-24T02:48:10;4.13;;;1.25;;
59434;SDS011;45241;49.768;8.636;2023-04-24T02:50:35;2.30;;;1.23;;
59434;SDS011;45241;49.768;8.636;2023-04-24T02:53:01;4.55;;;1.20;;
59434;SDS011;45241;49.768;8.636;2023-04-24T02:55:26;2.65;;;1.35;;
59434;SDS011;45241;49.768;8.636;2023-04-24T02:57:51;3.15;;;1.67;;
59434;SDS011;45241;49.768;8.636;2023-04-24T03:00:17;3.90;;;1.48;;
59434;SDS011;45241;49.768;8.636;2023-04-24T03:02:42;2.67;;;1.27;;
59434;SDS011;45241;49.768;8.636;2023-04-24T03:05:08;3.33;;;1.30;;
59434;SDS011;45241;49.768;8.636;2023-04-24T03:07:34;2.85;;;1.30;;
59434;SDS011;45241;49.768;8.636;2023-04-24T03:09:59;2.38;;;1.23;;
59434;SDS011;45241;49.768;8.636;2023-04-24T03:12:24;5.60;;;1.50;;
59434;SDS011;45241;49.768;8.636;2023-04-24T03:14:50;4.50;;;1.20;;
59434;SDS011;45241;49.768;8.636;2023-04-24T03:17:15;3.72;;;1.08;;
59434;SDS011;45241;49.768;8.636;2023-04-24T03:19:41;2.40;;;1.17;;
59434;SDS011;45241;49.768;8.636;2023-04-24T03:22:06;1.67;;;1.10;;
59434;SDS011;45241;49.768;8.636;2023-04-24T03:24:31;3.17;;;1.20;;
59434;SDS011;45241;49.768;8.636;2023-04-24T03:26:57;2.28;;;1.42;;
59434;SDS011;45241;49.768;8.636;2023-04-24T03:29:22;3.78;;;1.30;;
59434;SDS011;45241;49.768;8.636;2023-04-24T03:31:48;3.58;;;1.42;;
59434;SDS011;45241;49.768;8.636;2023-04-24T03:34:13;2.28;;;1.20;;
59434;SDS011;45241;49.768;8.636;2023-04-24T03:36:39;3.08;;;1.27;;
59434;SDS011;45241;49.768;8.636;2023-04-24T03:39:04;2.75;;;1.40;;
59434;SDS011;45241;49.768;8.636;2023-04-24T03:41:30;2.38;;;1.10;;
59434;SDS011;45241;49.768;8.636;2023-04-24T03:43:55;2.83;;;1.10;;
59434;SDS011;45241;49.768;8.636;2023-04-24T03:46:21;1.85;;;1.20;;
59434;SDS011;45241;49.768;8.636;2023-04-24T03:48:46;3.13;;;1.50;;
59434;SDS011;45241;49.768;8.636;2023-04-24T03:51:11;2.67;;;1.50;;
59434;SDS011;45241;49.768;8.636;2023-04-24T03:53:37;4.53;;;1.50;;
59434;SDS011;45241;49.768;8.636;2023-04-24T03:56:02;3.17;;;1.60;;
59434;SDS011;45241;49.768;8.636;2023-04-24T03:58:28;2.15;;;1.63;;
59434;SDS011;45241;49.768;8.636;2023-04-24T04:00:53;2.53;;;1.35;;
59434;SDS011;45241;49.768;8.636;2023-04-24T04:03:18;3.30;;;1.58;;
59434;SDS011;45241;49.768;8.636;2023-04-24T04:05:44;2.80;;;1.38;;
59434;SDS011;45241;49.768;8.636;2023-04-24T04:08:10;3.58;;;1.60;;
59434;SDS011;45241;49.768;8.636;2023-04-24T04:10:35;3.92;;;1.80;;
59434;SDS011;45241;49.768;8.636;2023-04-24T04:13:00;3.50;;;1.60;;
59434;SDS011;45241;49.768;8.636;2023-04-24T04:15:26;2.70;;;1.70;;
59434;SDS011;45241;49.768;8.636;2023-04-24T04:17:51;2.70;;;1.77;;
59434;SDS011;45241;49.768;8.636;2023-04-24T04:20:17;3.58;;;2.03;;
59434;SDS011;45241;49.768;8.636;2023-04-24T04:22:42;2.35;;;1.85;;
59434;SDS011;45241;49.768;8.636;2023-04-24T04:25:07;3.45;;;1.85;;
59434;SDS011;45241;49.768;8.636;2023-04-24T04:27:33;2.95;;;2.00;;
59434;SDS011;45241;49.768;8.636;2023-04-24T04:29:59;2.92;;;2.17;;
59434;SDS011;45241;49.768;8.636;2023-04-24T04:32:33;3.60;;;2.33;;
59434;SDS011;45241;49.768;8.636;2023-04-24T04:34:59;2.53;;;2.30;;
59434;SDS011;45241;49.768;8.636;2023-04-24T04:37:28;3.42;;;2.30;;
59434;SDS011;45241;49.768;8.636;2023-04-24T04:39:58;3.70;;;2.20;;
59434;SDS011;45241;49.768;8.636;2023-04-24T04:42:24;2.55;;;2.35;;
59434;SDS011;45241;49.768;8.636;2023-04-24T04:44:50;3.38;;;2.67;;
59434;SDS011;45241;49.768;8.636;2023-04-24T04:47:16;3.45;;;2.22;;
59434;SDS011;45241;49.768;8.636;2023-04-24T04:49:42;3.60;;;2.22;;
59434;SDS011;45241;49.768;8.636;2023-04-24T04:52:08;3.53;;;2.15;;
59434;SDS011;45241;49.768;8.636;2023-04-24T04:54:33;2.50;;;2.30;;
59434;SDS011;45241;49.768;8.636;2023-04-24T04:56:58;2.40;;;2.20;;
59434;SDS011;45241;49.768;8.636;2023-04-24T04:59:25;3.40;;;2.35;;
59434;SDS011;45241;49.768;8.636;2023-04-24T05:01:50;3.97;;;2.60;;
59434;SDS011;45241;49.768;8.636;2023-04-24T05:04:16;2.70;;;2.25;;
59434;SDS011;45241;49.768;8.636;2023-04-24T05:06:41;3.03;;;2.40;;
59434;SDS011;45241;49.768;8.636;2023-04-24T05:09:06;3.80;;;2.30;;
59434;SDS011;45241;49.768;8.636;2023-04-24T05:11:32;3.25;;;2.28;;
59434;SDS011;45241;49.768;8.636;2023-04-24T05:13:57;4.25;;;2.50;;
59434;SDS011;45241;49.768;8.636;2023-04-24T05:16:23;3.70;;;2.33;;
59434;SDS011;45241;49.768;8.636;2023-04-24T05:18:48;3.15;;;2.53;;
59434;SDS011;45241;49.768;8.636;2023-04-24T05:21:13;3.08;;;2.42;;
59434;SDS011;45241;49.768;8.636;2023-04-24T05:23:39;2.85;;;2.58;;
59434;SDS011;45241;49.768;8.636;2023-04-24T05:26:04;4.20;;;3.10;;
59434;SDS011;45241;49.768;8.636;2023-04-24T05:28:29;3.83;;;2.90;;
59434;SDS011;45241;49.768;8.636;2023-04-24T05:30:55;3.10;;;2.70;;
59434;SDS011;45241;49.768;8.636;2023-04-24T05:33:21;4.70;;;3.05;;
59434;SDS011;45241;49.768;8.636;2023-04-24T05:35:47;5.55;;;3.05;;
59434;SDS011;45241;49.768;8.636;2023-04-24T05:38:12;3.13;;;2.83;;
59434;SDS011;45241;49.768;8.636;2023-04-24T05:40:38;4.25;;;2.83;;
59434;SDS011;45241;49.768;8.636;2023-04-24T05:43:04;6.47;;;2.83;;
59434;SDS011;45241;49.768;8.636;2023-04-24T05:45:29;5.10;;;3.20;;
59434;SDS011;45241;49.768;8.636;2023-04-24T05:47:55;5.70;;;3.28;;
59434;SDS011;45241;49.768;8.636;2023-04-24T05:50:20;3.75;;;3.05;;
59434;SDS011;45241;49.768;8.636;2023-04-24T05:52:45;5.43;;;3.35;;
59434;SDS011;45241;49.768;8.636;2023-04-24T05:55:11;5.30;;;3.50;;
59434;SDS011;45241;49.768;8.636;2023-04-24T05:57:36;6.63;;;3.88;;
59434;SDS011;45241;49.768;8.636;2023-04-24T06:00:02;5.55;;;3.38;;
59434;SDS011;45241;49.768;8.636;2023-04-24T06:02:29;6.32;;;3.38;;
59434;SDS011;45241;49.768;8.636;2023-04-24T06:04:57;4.20;;;3.08;;
59434;SDS011;45241;49.768;8.636;2023-04-24T06:07:24;5.10;;;3.10;;
59434;SDS011;45241;49.768;8.636;2023-04-24T06:09:51;5.65;;;3.42;;
59434;SDS011;45241;49.768;8.636;2023-04-24T06:12:16;4.47;;;3.22;;
59434;SDS011;45241;49.768;8.636;2023-04-24T06:14:41;3.45;;;3.13;;
59434;SDS011;45241;49.768;8.636;2023-04-24T06:17:07;3.70;;;3.40;;
59434;SDS011;45241;49.768;8.636;2023-04-24T06:19:32;4.22;;;3.28;;
59434;SDS011;45241;49.768;8.636;2023-04-24T06:21:57;4.53;;;3.70;;
59434;SDS011;45241;49.768;8.636;2023-04-24T06:24:26;4.20;;;3.47;;
59434;SDS011;45241;49.768;8.636;2023-04-24T06:26:52;6.13;;;4.00;;
59434;SDS011;45241;49.768;8.636;2023-04-24T06:29:17;6.32;;;4.15;;
59434;SDS011;45241;49.768;8.636;2023-04-24T06:31:43;6.00;;;4.28;;
59434;SDS011;45241;49.768;8.636;2023-04-24T06:34:08;4.70;;;3.95;;
59434;SDS011;45241;49.768;8.636;2023-04-24T06:36:33;5.70;;;4.25;;
59434;SDS011;45241;49.768;8.636;2023-04-24T06:39:00;7.00;;;4.13;;
59434;SDS011;45241;49.768;8.636;2023-04-24T06:41:26;6.75;;;4.70;;
59434;SDS011;45241;49.768;8.636;2023-04-24T06:43:51;6.63;;;4.40;;
59434;SDS011;45241;49.768;8.636;2023-04-24T06:46:16;9.55;;;4.40;;
59434;SDS011;45241;49.768;8.636;2023-04-24T06:48:42;6.72;;;5.20;;
59434;SDS011;45241;49.768;8.636;2023-04-24T06:51:07;7.45;;;4.80;;
59434;SDS011;45241;49.768;8.636;2023-04-24T06:53:32;6.18;;;4.60;;
59434;SDS011;45241;49.768;8.636;2023-04-24T06:55:58;6.95;;;4.70;;
59434;SDS011;45241;49.768;8.636;2023-04-24T06:58:24;7.63;;;4.65;;
59434;SDS011;45241;49.768;8.636;2023-04-24T07:00:50;6.07;;;4.47;;
59434;SDS011;45241;49.768;8.636;2023-04-24T07:03:15;6.32;;;5.07;;
59434;SDS011;45241;49.768;8.636;2023-04-24T07:05:41;6.00;;;5.07;;
59434;SDS011;45241;49.768;8.636;2023-04-24T07:08:06;7.40;;;4.88;;
59434;SDS011;45241;49.768;8.636;2023-04-24T07:10:32;5.85;;;4.70;;
59434;SDS011;45241;49.768;8.636;2023-04-24T07:13:00;7.35;;;4.40;;
59434;SDS011;45241;49.768;8.636;2023-04-24T07:15:26;7.10;;;5.00;;
59434;SDS011;45241;49.768;8.636;2023-04-24T07:17:51;5.43;;;4.28;;
59434;SDS011;45241;49.768;8.636;2023-04-24T07:20:17;4.97;;;3.92;;
59434;SDS011;45241;49.768;8.636;2023-04-24T07:22:42;4.82;;;3.95;;
59434;SDS011;45241;49.768;8.636;2023-04-24T07:25:08;4.88;;;3.35;;
59434;SDS011;45241;49.768;8.636;2023-04-24T07:27:34;4.85;;;2.95;;
59434;SDS011;45241;49.768;8.636;2023-04-24T07:30:01;4.10;;;3.15;;
59434;SDS011;45241;49.768;8.636;2023-04-24T07:32:28;5.40;;;3.22;;
59434;SDS011;45241;49.768;8.636;2023-04-24T07:34:54;5.32;;;3.45;;
59434;SDS011;45241;49.768;8.636;2023-04-24T07:37:20;4.80;;;3.50;;
59434;SDS011;45241;49.768;8.636;2023-04-24T07:39:45;5.80;;;3.60;;
59434;SDS011;45241;49.768;8.636;2023-04-24T07:42:10;6.10;;;3.70;;
59434;SDS011;45241;49.768;8.636;2023-04-24T07:44:36;5.07;;;3.13;;
59434;SDS011;45241;49.768;8.636;2023-04-24T07:47:01;4.78;;;3.00;;
59434;SDS011;45241;49.768;8.636;2023-04-24T07:49:26;6.63;;;3.00;;
59434;SDS011;45241;49.768;8.636;2023-04-24T07:51:52;4.35;;;3.00;;
59434;SDS011;45241;49.768;8.636;2023-04-24T07:54:18;4.00;;;2.45;;
59434;SDS011;45241;49.768;8.636;2023-04-24T07:56:43;4.97;;;2.78;;
59434;SDS011;45241;49.768;8.636;2023-04-24T07:59:09;3.95;;;3.20;;
59434;SDS011;45241;49.768;8.636;2023-04-24T08:01:35;4.45;;;2.90;;
59434;SDS011;45241;49.768;8.636;2023-04-24T08:04:01;3.20;;;2.90;;
59434;SDS011;45241;49.768;8.636;2023-04-24T08:06:27;3.20;;;2.60;;
59434;SDS011;45241;49.768;8.636;2023-04-24T08:08:56;4.80;;;1.83;;
59434;SDS011;45241;49.768;8.636;2023-04-24T08:11:22;2.00;;;1.80;;
59434;SDS011;45241;49.768;8.636;2023-04-24T08:13:49;3.22;;;1.67;;
59434;SDS011;45241;49.768;8.636;2023-04-24T08:16:14;3.03;;;1.73;;
59434;SDS011;45241;49.768;8.636;2023-04-24T08:18:39;2.10;;;1.50;;
59434;SDS011;45241;49.768;8.636;2023-04-24T08:21:05;2.78;;;1.70;;
59434;SDS011;45241;49.768;8.636;2023-04-24T08:23:30;3.90;;;1.90;;
59434;SDS011;45241;49.768;8.636;2023-04-24T08:25:55;3.20;;;2.10;;
59434;SDS011;45241;49.768;8.636;2023-04-24T08:28:21;4.90;;;1.92;;
59434;SDS011;45241;49.768;8.636;2023-04-24T08:30:47;3.03;;;2.00;;
59434;SDS011;45241;49.768;8.636;2023-04-24T08:33:13;1.90;;;1.80;;
59434;SDS011;45241;49.768;8.636;2023-04-24T08:35:39;3.55;;;2.10;;
59434;SDS011;45241;49.768;8.636;2023-04-24T08:38:04;2.35;;;2.08;;
59434;SDS011;45241;49.768;8.636;2023-04-24T08:40:31;2.00;;;1.80;;
59434;SDS011;45241;49.768;8.636;2023-04-24T08:43:00;4.18;;;2.47;;
59434;SDS011;45241;49.768;8.636;2023-04-24T08:45:25;4.72;;;2.50;;
59434;SDS011;45241;49.768;8.636;2023-04-24T08:47:52;6.60;;;2.67;;
59434;SDS011;45241;49.768;8.636;2023-04-24T08:50:18;2.40;;;2.10;;
59434;SDS011;45241;49.768;8.636;2023-04-24T08:52:44;3.05;;;2.22;;
59434;SDS011;45241;49.768;8.636;2023-04-24T08:55:10;3.60;;;2.50;;
59434;SDS011;45241;49.768;8.636;2023-04-24T08:57:35;2.75;;;2.00;;
59434;SDS011;45241;49.768;8.636;2023-04-24T09:00:03;2.40;;;2.20;;
59434;SDS011;45241;49.768;8.636;2023-04-24T09:02:31;4.38;;;2.20;;
59434;SDS011;45241;49.768;8.636;2023-04-24T09:04:57;3.67;;;2.67;;
59434;SDS011;45241;49.768;8.636;2023-04-24T09:07:24;2.72;;;2.30;;
59434;SDS011;45241;49.768;8.636;2023-04-24T09:09:51;3.72;;;2.70;;
59434;SDS011;45241;49.768;8.636;2023-04-24T09:12:17;3.05;;;2.63;;
59434;SDS011;45241;49.768;8.636;2023-04-24T09:14:42;2.70;;;2.50;;
59434;SDS011;45241;49.768;8.636;2023-04-24T09:17:10;3.00;;;2.50;;
59434;SDS011;45241;49.768;8.636;2023-04-24T09:19:35;3.78;;;2.58;;
59434;SDS011;45241;49.768;8.636;2023-04-24T09:22:04;3.03;;;2.70;;
59434;SDS011;45241;49.768;8.636;2023-04-24T09:26:57;3.22;;;2.92;;
59434;SDS011;45241;49.768;8.636;2023-04-24T09:29:24;4.93;;;3.10;;
59434;SDS011;45241;49.768;8.636;2023-04-24T09:31:49;2.78;;;2.58;;
59434;SDS011;45241;49.768;8.636;2023-04-24T09:34:18;3.67;;;2.88;;
59434;SDS011;45241;49.768;8.636;2023-04-24T09:36:46;4.75;;;3.03;;
59434;SDS011;45241;49.768;8.636;2023-04-24T09:39:12;5.53;;;2.90;;
59434;SDS011;45241;49.768;8.636;2023-04-24T09:41:47;2.97;;;2.67;;
59434;SDS011;45241;49.768;8.636;2023-04-24T09:44:17;5.32;;;3.08;;
59434;SDS011;45241;49.768;8.636;2023-04-24T09:46:44;4.30;;;3.20;;
59434;SDS011;45241;49.768;8.636;2023-04-24T09:49:14;3.70;;;3.20;;
59434;SDS011;45241;49.768;8.636;2023-04-24T09:51:43;3.05;;;2.75;;
59434;SDS011;45241;49.768;8.636;2023-04-24T09:54:18;3.88;;;3.28;;
59434;SDS011;45241;49.768;8.636;2023-04-24T09:56:46;4.88;;;3.38;;
59434;SDS011;45241;49.768;8.636;2023-04-24T09:59:14;3.78;;;2.80;;
59434;SDS011;45241;49.768;8.636;2023-04-24T10:01:42;3.80;;;2.60;;
59434;SDS011;45241;49.768;8.636;2023-04-24T10:04:30;4.07;;;2.65;;
59434;SDS011;45241;49.768;8.636;2023-04-24T10:06:55;2.80;;;2.50;;
59434;SDS011;45241;49.768;8.636;2023-04-24T10:09:22;6.05;;;2.65;;
59434;SDS011;45241;49.768;8.636;2023-04-24T10:11:50;3.25;;;2.55;;
59434;SDS011;45241;49.768;8.636;2023-04-24T10:14:17;4.15;;;2.50;;
59434;SDS011;45241;49.768;8.636;2023-04-24T10:16:46;4.65;;;2.38;;
59434;SDS011;45241;49.768;8.636;2023-04-24T10:19:12;2.13;;;1.80;;
59434;SDS011;45241;49.768;8.636;2023-04-24T10:21:39;2.85;;;2.13;;
59434;SDS011;45241;49.768;8.636;2023-04-24T10:24:07;3.10;;;1.90;;
59434;SDS011;45241;49.768;8.636;2023-04-24T10:26:33;2.10;;;1.90;;
59434;SDS011;45241;49.768;8.636;2023-04-24T10:28:59;2.72;;;2.00;;
59434;SDS011;45241;49.768;8.636;2023-04-24T10:31:26;4.05;;;1.95;;
59434;SDS011;45241;49.768;8.636;2023-04-24T10:33:55;5.18;;;2.17;;
59434;SDS011;45241;49.768;8.636;2023-04-24T10:36:22;3.38;;;2.00;;
59434;SDS011;45241;49.768;8.636;2023-04-24T10:38:51;2.45;;;2.15;;
59434;SDS011;45241;49.768;8.636;2023-04-24T10:41:19;2.55;;;2.22;;
59434;SDS011;45241;49.768;8.636;2023-04-24T10:43:48;4.53;;;2.45;;
59434;SDS011;45241;49.768;8.636;2023-04-24T10:46:19;5.18;;;2.33;;
59434;SDS011;45241;49.768;8.636;2023-04-24T10:48:54;6.18;;;2.33;;
59434;SDS011;45241;49.768;8.636;2023-04-24T10:51:21;3.33;;;2.05;;
59434;SDS011;45241;49.768;8.636;2023-04-24T10:53:47;3.30;;;2.78;;
59434;SDS011;45241;49.768;8.636;2023-04-24T10:56:15;4.00;;;2.42;;
59434;SDS011;45241;49.768;8.636;2023-04-24T10:58:42;3.03;;;2.42;;
59434;SDS011;45241;49.768;8.636;2023-04-24T11:01:22;2.80;;;2.20;;
59434;SDS011;45241;49.768;8.636;2023-04-24T11:03:50;6.18;;;2.47;;
59434;SDS011;45241;49.768;8.636;2023-04-24T11:06:28;4.38;;;2.47;;
59434;SDS011;45241;49.768;8.636;2023-04-24T11:09:04;4.45;;;2.17;;
59434;SDS011;45241;49.768;8.636;2023-04-24T11:11:38;2.92;;;2.00;;
59434;SDS011;45241;49.768;8.636;2023-04-24T11:14:10;4.18;;;2.47;;
59434;SDS011;45241;49.768;8.636;2023-04-24T11:16:40;2.25;;;2.00;;
59434;SDS011;45241;49.768;8.636;2023-04-24T11:21:46;4.05;;;2.40;;
59434;SDS011;45241;49.768;8.636;2023-04-24T11:25:05;2.33;;;2.10;;
59434;SDS011;45241;49.768;8.636;2023-04-24T11:32:18;4.22;;;2.33;;
59434;SDS011;45241;49.768;8.636;2023-04-24T11:34:49;3.63;;;2.50;;
59434;SDS011;45241;49.768;8.636;2023-04-24T11:37:16;5.25;;;2.80;;
59434;SDS011;45241;49.768;8.636;2023-04-24T11:39:42;3.58;;;2.45;;
59434;SDS011;45241;49.768;8.636;2023-04-24T11:42:08;3.35;;;2.35;;
59434;SDS011;45241;49.768;8.636;2023-04-24T11:44:34;3.53;;;2.55;;
59434;SDS011;45241;49.768;8.636;2023-04-24T11:47:02;2.63;;;2.40;;
59434;SDS011;45241;49.768;8.636;2023-04-24T11:49:31;3.30;;;2.72;;
59434;SDS011;45241;49.768;8.636;2023-04-24T11:51:57;4.50;;;2.90;;
59434;SDS011;45241;49.768;8.636;2023-04-24T11:54:24;3.85;;;2.90;;
59434;SDS011;45241;49.768;8.636;2023-04-24T11:56:50;3.42;;;2.60;;
59434;SDS011;45241;49.768;8.636;2023-04-24T11:59:15;3.80;;;3.35;;
59434;SDS011;45241;49.768;8.636;2023-04-24T12:01:44;4.63;;;2.70;;
59434;SDS011;45241;49.768;8.636;2023-04-24T12:04:14;4.53;;;2.65;;
59434;SDS011;45241;49.768;8.636;2023-04-24T12:06:40;5.57;;;2.90;;
59434;SDS011;45241;49.768;8.636;2023-04-24T12:09:24;5.40;;;2.97;;
59434;SDS011;45241;49.768;8.636;2023-04-24T12:11:56;4.15;;;3.03;;
59434;SDS011;45241;49.768;8.636;2023-04-24T12:14:24;4.15;;;2.83;;
59434;SDS011;45241;49.768;8.636;2023-04-24T12:16:50;4.72;;;3.20;;
59434;SDS011;45241;49.768;8.636;2023-04-24T12:19:20;4.93;;;3.47;;
59434;SDS011;45241;49.768;8.636;2023-04-24T12:21:58;5.30;;;3.08;;
59434;SDS011;45241;49.768;8.636;2023-04-24T12:24:28;4.57;;;2.85;;
59434;SDS011;45241;49.768;8.636;2023-04-24T12:26:53;4.72;;;3.10;;
59434;SDS011;45241;49.768;8.636;2023-04-24T12:29:20;5.05;;;3.35;;
59434;SDS011;45241;49.768;8.636;2023-04-24T12:31:46;4.85;;;3.80;;
59434;SDS011;45241;49.768;8.636;2023-04-24T12:34:18;3.92;;;3.22;;
59434;SDS011;45241;49.768;8.636;2023-04-24T12:36:45;5.22;;;4.28;;
59434;SDS011;45241;49.768;8.636;2023-04-24T12:39:17;5.95;;;3.72;;
59434;SDS011;45241;49.768;8.636;2023-04-24T12:41:50;4.90;;;3.70;;
59434;SDS011;45241;49.768;8.636;2023-04-24T12:44:28;5.05;;;3.28;;
59434;SDS011;45241;49.768;8.636;2023-04-24T12:46:56;6.00;;;3.03;;
59434;SDS011;45241;49.768;8.636;2023-04-24T12:49:22;4.47;;;3.35;;
59434;SDS011;45241;49.768;8.636;2023-04-24T12:51:47;3.60;;;2.75;;
59434;SDS011;45241;49.768;8.636;2023-04-24T12:54:12;3.95;;;3.10;;
59434;SDS011;45241;49.768;8.636;2023-04-24T12:56:38;4.50;;;3.17;;
59434;SDS011;45241;49.768;8.636;2023-04-24T12:59:04;4.57;;;3.67;;
59434;SDS011;45241;49.768;8.636;2023-04-24T13:01:30;4.78;;;3.30;;
59434;SDS011;45241;49.768;8.636;2023-04-24T13:03:55;5.72;;;3.20;;
59434;SDS011;45241;49.768;8.636;2023-04-24T13:06:21;5.30;;;3.10;;
59434;SDS011;45241;49.768;8.636;2023-04-24T13:08:46;4.55;;;2.80;;
59434;SDS011;45241;49.768;8.636;2023-04-24T13:11:12;5.82;;;2.95;;
59434;SDS011;45241;49.768;8.636;2023-04-24T13:13:38;4.25;;;2.60;;
59434;SDS011;45241;49.768;8.636;2023-04-24T13:16:03;4.72;;;2.63;;
59434;SDS011;45241;49.768;8.636;2023-04-24T13:18:29;6.20;;;2.30;;
59434;SDS011;45241;49.768;8.636;2023-04-24T13:20:54;5.78;;;2.50;;
59434;SDS011;45241;49.768;8.636;2023-04-24T13:23:20;3.97;;;2.30;;
59434;SDS011;45241;49.768;8.636;2023-04-24T13:25:46;3.85;;;2.42;;
59434;SDS011;45241;49.768;8.636;2023-04-24T13:28:12;3.90;;;2.78;;
59434;SDS011;45241;49.768;8.636;2023-04-24T13:30:37;5.35;;;2.90;;
59434;SDS011;45241;49.768;8.636;2023-04-24T13:33:03;4.05;;;2.88;;
59434;SDS011;45241;49.768;8.636;2023-04-24T13:35:28;5.65;;;3.20;;
59434;SDS011;45241;49.768;8.636;2023-04-24T13:37:53;4.07;;;2.78;;
59434;SDS011;45241;49.768;8.636;2023-04-24T13:40:18;3.78;;;2.42;;
59434;SDS011;45241;49.768;8.636;2023-04-24T13:42:44;3.95;;;2.70;;
59434;SDS011;45241;49.768;8.636;2023-04-24T13:45:09;3.95;;;2.50;;
59434;SDS011;45241;49.768;8.636;2023-04-24T13:47:35;5.32;;;3.15;;
59434;SDS011;45241;49.768;8.636;2023-04-24T13:50:01;5.75;;;3.00;;
59434;SDS011;45241;49.768;8.636;2023-04-24T13:52:26;6.70;;;2.70;;
59434;SDS011;45241;49.768;8.636;2023-04-24T13:54:51;5.13;;;2.60;;
59434;SDS011;45241;49.768;8.636;2023-04-24T13:57:17;6.55;;;2.65;;
59434;SDS011;45241;49.768;8.636;2023-04-24T13:59:42;4.88;;;2.83;;
59434;SDS011;45241;49.768;8.636;2023-04-24T14:02:08;3.95;;;2.30;;
59434;SDS011;45241;49.768;8.636;2023-04-24T14:04:33;4.70;;;2.53;;
59434;SDS011;45241;49.768;8.636;2023-04-24T14:06:58;4.63;;;2.65;;
59434;SDS011;45241;49.768;8.636;2023-04-24T14:09:24;4.47;;;2.65;;
59434;SDS011;45241;49.768;8.636;2023-04-24T14:11:49;3.67;;;2.63;;
59434;SDS011;45241;49.768;8.636;2023-04-24T14:14:16;4.05;;;2.50;;
59434;SDS011;45241;49.768;8.636;2023-04-24T14:16:41;4.03;;;2.50;;
59434;SDS011;45241;49.768;8.636;2023-04-24T14:19:06;5.60;;;2.50;;
59434;SDS011;45241;49.768;8.636;2023-04-24T14:21:32;3.63;;;2.58;;
59434;SDS011;45241;49.768;8.636;2023-04-24T14:23:58;3.97;;;2.42;;
59434;SDS011;45241;49.768;8.636;2023-04-24T14:26:23;4.13;;;2.03;;
59434;SDS011;45241;49.768;8.636;2023-04-24T14:28:49;4.53;;;2.45;;
59434;SDS011;45241;49.768;8.636;2023-04-24T14:31:15;3.33;;;2.40;;
59434;SDS011;45241;49.768;8.636;2023-04-24T14:33:40;2.78;;;2.35;;
59434;SDS011;45241;49.768;8.636;2023-04-24T14:36:06;3.40;;;2.53;;
59434;SDS011;45241;49.768;8.636;2023-04-24T14:38:31;4.88;;;2.30;;
59434;SDS011;45241;49.768;8.636;2023-04-24T14:40:57;3.25;;;2.42;;
59434;SDS011;45241;49.768;8.636;2023-04-24T14:43:22;3.55;;;2.28;;
59434;SDS011;45241;49.768;8.636;2023-04-24T14:45:47;2.42;;;1.98;;
59434;SDS011;45241;49.768;8.636;2023-04-24T14:48:13;3.10;;;2.10;;
59434;SDS011;45241;49.768;8.636;2023-04-24T14:50:38;3.40;;;2.40;;
59434;SDS011;45241;49.768;8.636;2023-04-24T14:53:03;3.30;;;2.38;;